sensor_id;sensor_type;location;lat;lon;timestamp;pressure;altitude;pressure_sealevel;temperature;humidity
58879;BME280;44660;42.664;23.266;2023-12-20T00:01:48;94929.44;;;1.26;71.37
58879;BME280;44660;42.664;23.266;2023-12-20T00:04:14;94904.63;;;1.14;71.55
58879;BME280;44660;42.664;23.266;2023-12-20T00:06:40;94889.91;;;1.13;72.00
58879;BME280;44660;42.664;23.266;2023-12-20T00:09:05;94897.41;;;1.16;71.80
58879;BME280;44660;42.664;23.266;2023-12-20T00:11:30;94911.28;;;1.25;71.78
58879;BME280;44660;42.664;23.266;2023-12-20T00:13:56;94893.44;;;1.20;71.73
58879;BME280;44660;42.664;23.266;2023-12-20T00:16:21;94901.38;;;1.12;71.68
58879;BME280;44660;42.664;23.266;2023-12-20T00:18:46;94899.06;;;1.17;71.75
58879;BME280;44660;42.664;23.266;2023-12-20T00:21:12;94895.59;;;1.17;71.74
58879;BME280;44660;42.664;23.266;2023-12-20T00:23:37;94880.47;;;1.04;71.83
58879;BME280;44660;42.664;23.266;2023-12-20T00:26:03;94890.91;;;1.12;72.02
58879;BME280;44660;42.664;23.266;2023-12-20T00:28:28;94865.13;;;1.01;71.91
58879;BME280;44660;42.664;23.266;2023-12-20T00:30:54;94879.78;;;1.10;71.71
58879;BME280;44660;42.664;23.266;2023-12-20T00:33:19;94869.66;;;1.07;71.73
58879;BME280;44660;42.664;23.266;2023-12-20T00:35:45;94853.19;;;0.98;71.86
58879;BME280;44660;42.664;23.266;2023-12-20T00:38:10;94868.66;;;1.08;71.82
58879;BME280;44660;42.664;23.266;2023-12-20T00:40:36;94856.09;;;1.03;71.47
58879;BME280;44660;42.664;23.266;2023-12-20T00:43:02;94860.97;;;1.06;71.73
58879;BME280;44660;42.664;23.266;2023-12-20T00:45:27;94855.47;;;1.01;71.48
58879;BME280;44660;42.664;23.266;2023-12-20T00:47:53;94833.00;;;0.84;71.48
58879;BME280;44660;42.664;23.266;2023-12-20T00:50:18;94866.41;;;1.05;71.73
58879;BME280;44660;42.664;23.266;2023-12-20T00:52:43;94843.59;;;0.90;71.92
58879;BME280;44660;42.664;23.266;2023-12-20T00:55:09;94862.16;;;1.04;71.70
58879;BME280;44660;42.664;23.266;2023-12-20T00:57:34;94852.38;;;0.97;72.13
58879;BME280;44660;42.664;23.266;2023-12-20T01:00:00;94831.22;;;0.84;71.86
58879;BME280;44660;42.664;23.266;2023-12-20T01:02:25;94825.00;;;0.85;71.94
58879;BME280;44660;42.664;23.266;2023-12-20T01:04:50;94846.63;;;1.02;72.01
58879;BME280;44660;42.664;23.266;2023-12-20T01:07:16;94829.50;;;0.91;71.66
58879;BME280;44660;42.664;23.266;2023-12-20T01:09:41;94833.88;;;0.99;71.77
58879;BME280;44660;42.664;23.266;2023-12-20T01:12:07;94827.53;;;0.93;71.69
58879;BME280;44660;42.664;23.266;2023-12-20T01:14:32;94835.03;;;0.96;72.08
58879;BME280;44660;42.664;23.266;2023-12-20T01:16:57;94838.47;;;0.97;71.79
58879;BME280;44660;42.664;23.266;2023-12-20T01:19:24;94809.59;;;0.82;71.96
58879;BME280;44660;42.664;23.266;2023-12-20T01:21:50;94830.78;;;0.95;71.83
58879;BME280;44660;42.664;23.266;2023-12-20T01:24:15;94812.50;;;0.87;72.33
58879;BME280;44660;42.664;23.266;2023-12-20T01:26:40;94815.31;;;0.86;72.42
58879;BME280;44660;42.664;23.266;2023-12-20T01:29:06;94817.06;;;0.93;72.09
58879;BME280;44660;42.664;23.266;2023-12-20T01:31:31;94811.00;;;0.93;71.92
58879;BME280;44660;42.664;23.266;2023-12-20T01:33:57;94805.31;;;0.89;71.58
58879;BME280;44660;42.664;23.266;2023-12-20T01:36:22;94775.28;;;0.77;71.53
58879;BME280;44660;42.664;23.266;2023-12-20T01:38:48;94805.41;;;0.96;71.71
58879;BME280;44660;42.664;23.266;2023-12-20T01:41:13;94809.84;;;0.95;72.39
58879;BME280;44660;42.664;23.266;2023-12-20T01:43:38;94791.34;;;0.97;72.36
58879;BME280;44660;42.664;23.266;2023-12-20T01:46:04;94784.34;;;0.89;71.88
58879;BME280;44660;42.664;23.266;2023-12-20T01:48:30;94789.69;;;0.96;71.96
58879;BME280;44660;42.664;23.266;2023-12-20T01:50:58;94771.44;;;0.88;71.97
58879;BME280;44660;42.664;23.266;2023-12-20T01:53:25;94783.28;;;0.98;72.16
58879;BME280;44660;42.664;23.266;2023-12-20T01:55:52;94784.94;;;1.00;71.95
58879;BME280;44660;42.664;23.266;2023-12-20T01:58:19;94775.25;;;1.00;71.73
58879;BME280;44660;42.664;23.266;2023-12-20T02:00:45;94762.44;;;0.90;71.99
58879;BME280;44660;42.664;23.266;2023-12-20T02:03:11;94763.41;;;0.89;71.65
58879;BME280;44660;42.664;23.266;2023-12-20T02:05:37;94765.38;;;0.87;71.38
58879;BME280;44660;42.664;23.266;2023-12-20T02:08:03;94766.22;;;0.88;71.44
58879;BME280;44660;42.664;23.266;2023-12-20T02:10:29;94746.22;;;0.72;71.57
58879;BME280;44660;42.664;23.266;2023-12-20T02:12:55;94709.94;;;0.45;71.91
58879;BME280;44660;42.664;23.266;2023-12-20T02:15:20;94738.06;;;0.67;72.38
58879;BME280;44660;42.664;23.266;2023-12-20T02:17:47;94741.16;;;0.70;72.51
58879;BME280;44660;42.664;23.266;2023-12-20T02:20:12;94758.06;;;0.83;72.37
58879;BME280;44660;42.664;23.266;2023-12-20T02:22:38;94759.22;;;0.80;72.15
58879;BME280;44660;42.664;23.266;2023-12-20T02:25:03;94747.38;;;0.69;72.64
58879;BME280;44660;42.664;23.266;2023-12-20T02:27:29;94718.19;;;0.57;72.48
58879;BME280;44660;42.664;23.266;2023-12-20T02:29:55;94751.06;;;0.75;72.60
58879;BME280;44660;42.664;23.266;2023-12-20T02:32:21;94731.22;;;0.65;72.43
58879;BME280;44660;42.664;23.266;2023-12-20T02:34:48;94745.22;;;0.73;72.47
58879;BME280;44660;42.664;23.266;2023-12-20T02:37:14;94731.50;;;0.71;72.47
58879;BME280;44660;42.664;23.266;2023-12-20T02:39:39;94732.13;;;0.73;72.42
58879;BME280;44660;42.664;23.266;2023-12-20T02:42:05;94734.94;;;0.71;72.33
58879;BME280;44660;42.664;23.266;2023-12-20T02:44:30;94729.06;;;0.69;72.18
58879;BME280;44660;42.664;23.266;2023-12-20T02:46:56;94718.03;;;0.59;72.41
58879;BME280;44660;42.664;23.266;2023-12-20T02:49:21;94658.34;;;0.16;72.47
58879;BME280;44660;42.664;23.266;2023-12-20T02:51:50;94728.78;;;0.64;72.50
58879;BME280;44660;42.664;23.266;2023-12-20T02:54:15;94721.44;;;0.59;72.55
58879;BME280;44660;42.664;23.266;2023-12-20T02:56:41;94734.81;;;0.64;72.78
58879;BME280;44660;42.664;23.266;2023-12-20T02:59:06;94680.00;;;0.25;72.23
58879;BME280;44660;42.664;23.266;2023-12-20T03:01:34;94709.94;;;0.45;72.80
58879;BME280;44660;42.664;23.266;2023-12-20T03:03:59;94710.06;;;0.52;72.60
58879;BME280;44660;42.664;23.266;2023-12-20T03:06:25;94710.06;;;0.52;72.46
58879;BME280;44660;42.664;23.266;2023-12-20T03:08:50;94717.31;;;0.65;72.62
58879;BME280;44660;42.664;23.266;2023-12-20T03:11:16;94720.81;;;0.57;72.18
58879;BME280;44660;42.664;23.266;2023-12-20T03:13:41;94709.06;;;0.53;72.12
58879;BME280;44660;42.664;23.266;2023-12-20T03:16:13;94712.84;;;0.51;71.97
58879;BME280;44660;42.664;23.266;2023-12-20T03:18:39;94714.13;;;0.55;71.73
58879;BME280;44660;42.664;23.266;2023-12-20T03:21:05;94714.94;;;0.55;71.92
58879;BME280;44660;42.664;23.266;2023-12-20T03:23:31;94722.13;;;0.53;72.23
58879;BME280;44660;42.664;23.266;2023-12-20T03:25:58;94701.63;;;0.42;72.10
58879;BME280;44660;42.664;23.266;2023-12-20T03:28:23;94706.97;;;0.48;72.11
58879;BME280;44660;42.664;23.266;2023-12-20T03:30:49;94704.84;;;0.52;71.91
58879;BME280;44660;42.664;23.266;2023-12-20T03:33:14;94695.69;;;0.48;71.94
58879;BME280;44660;42.664;23.266;2023-12-20T03:35:40;94683.03;;;0.37;72.09
58879;BME280;44660;42.664;23.266;2023-12-20T03:38:05;94686.09;;;0.40;72.22
58879;BME280;44660;42.664;23.266;2023-12-20T03:40:30;94699.94;;;0.49;71.91
58879;BME280;44660;42.664;23.266;2023-12-20T03:42:56;94679.97;;;0.33;71.97
58879;BME280;44660;42.664;23.266;2023-12-20T03:45:21;94682.03;;;0.38;72.12
58879;BME280;44660;42.664;23.266;2023-12-20T03:47:47;94703.25;;;0.43;71.56
58879;BME280;44660;42.664;23.266;2023-12-20T03:50:12;94707.97;;;0.47;72.02
58879;BME280;44660;42.664;23.266;2023-12-20T03:52:38;94708.16;;;0.46;71.71
58879;BME280;44660;42.664;23.266;2023-12-20T03:55:03;94702.28;;;0.44;71.49
58879;BME280;44660;42.664;23.266;2023-12-20T03:57:29;94692.56;;;0.29;71.55
58879;BME280;44660;42.664;23.266;2023-12-20T03:59:54;94690.25;;;0.35;72.18
58879;BME280;44660;42.664;23.266;2023-12-20T04:02:20;94681.81;;;0.24;71.90
58879;BME280;44660;42.664;23.266;2023-12-20T04:04:46;94675.44;;;0.27;71.93
58879;BME280;44660;42.664;23.266;2023-12-20T04:07:11;94683.44;;;0.25;72.14
58879;BME280;44660;42.664;23.266;2023-12-20T04:09:37;94689.69;;;0.24;71.96
58879;BME280;44660;42.664;23.266;2023-12-20T04:12:03;94621.75;;;-0.07;71.97
58879;BME280;44660;42.664;23.266;2023-12-20T04:14:28;94661.59;;;0.18;72.17
58879;BME280;44660;42.664;23.266;2023-12-20T04:16:54;94667.13;;;0.23;72.08
58879;BME280;44660;42.664;23.266;2023-12-20T04:19:19;94663.34;;;0.26;71.97
58879;BME280;44660;42.664;23.266;2023-12-20T04:21:44;94660.25;;;0.22;71.90
58879;BME280;44660;42.664;23.266;2023-12-20T04:24:10;94649.75;;;0.07;71.87
58879;BME280;44660;42.664;23.266;2023-12-20T04:26:35;94659.31;;;0.15;71.95
58879;BME280;44660;42.664;23.266;2023-12-20T04:29:01;94667.81;;;0.17;72.08
58879;BME280;44660;42.664;23.266;2023-12-20T04:31:26;94629.78;;;-0.09;72.33
58879;BME280;44660;42.664;23.266;2023-12-20T04:33:52;94664.25;;;0.10;72.46
58879;BME280;44660;42.664;23.266;2023-12-20T04:36:17;94639.63;;;0.04;72.48
58879;BME280;44660;42.664;23.266;2023-12-20T04:38:43;94651.84;;;0.12;72.41
58879;BME280;44660;42.664;23.266;2023-12-20T04:41:08;94656.13;;;0.05;72.42
58879;BME280;44660;42.664;23.266;2023-12-20T04:43:33;94658.13;;;0.03;72.86
58879;BME280;44660;42.664;23.266;2023-12-20T04:45:59;94627.56;;;-0.20;73.03
58879;BME280;44660;42.664;23.266;2023-12-20T04:48:24;94639.81;;;0.03;73.47
58879;BME280;44660;42.664;23.266;2023-12-20T04:50:50;94646.50;;;0.05;72.95
58879;BME280;44660;42.664;23.266;2023-12-20T04:53:15;94633.47;;;-0.03;72.73
58879;BME280;44660;42.664;23.266;2023-12-20T04:55:40;94648.56;;;0.10;72.54
58879;BME280;44660;42.664;23.266;2023-12-20T04:58:06;94622.91;;;-0.10;72.71
58879;BME280;44660;42.664;23.266;2023-12-20T05:00:31;94620.75;;;-0.06;72.68
58879;BME280;44660;42.664;23.266;2023-12-20T05:02:57;94641.72;;;0.09;72.64
58879;BME280;44660;42.664;23.266;2023-12-20T05:05:22;94640.22;;;0.14;72.50
58879;BME280;44660;42.664;23.266;2023-12-20T05:07:48;94643.34;;;0.10;72.20
58879;BME280;44660;42.664;23.266;2023-12-20T05:10:13;94646.59;;;0.12;72.41
58879;BME280;44660;42.664;23.266;2023-12-20T05:12:38;94569.28;;;-0.29;72.36
58879;BME280;44660;42.664;23.266;2023-12-20T05:15:06;94620.00;;;0.08;72.33
58879;BME280;44660;42.664;23.266;2023-12-20T05:17:31;94637.59;;;0.14;71.92
58879;BME280;44660;42.664;23.266;2023-12-20T05:19:57;94597.09;;;-0.13;71.96
58879;BME280;44660;42.664;23.266;2023-12-20T05:22:22;94570.47;;;-0.31;71.94
58879;BME280;44660;42.664;23.266;2023-12-20T05:24:47;94596.75;;;-0.10;71.89
58879;BME280;44660;42.664;23.266;2023-12-20T05:27:13;94610.59;;;-0.01;72.06
58879;BME280;44660;42.664;23.266;2023-12-20T05:29:38;94566.53;;;-0.36;71.64
58879;BME280;44660;42.664;23.266;2023-12-20T05:32:04;94624.13;;;0.03;71.51
58879;BME280;44660;42.664;23.266;2023-12-20T05:34:30;94603.25;;;-0.06;72.09
58879;BME280;44660;42.664;23.266;2023-12-20T05:36:56;94622.31;;;0.03;72.12
58879;BME280;44660;42.664;23.266;2023-12-20T05:39:21;94538.69;;;-0.43;71.83
58879;BME280;44660;42.664;23.266;2023-12-20T05:41:47;94580.16;;;-0.17;71.87
58879;BME280;44660;42.664;23.266;2023-12-20T05:44:13;94616.63;;;-0.01;72.25
58879;BME280;44660;42.664;23.266;2023-12-20T05:46:38;94600.34;;;-0.11;72.19
58879;BME280;44660;42.664;23.266;2023-12-20T05:49:05;94585.19;;;-0.15;72.15
58879;BME280;44660;42.664;23.266;2023-12-20T05:51:30;94612.03;;;0.02;71.96
58879;BME280;44660;42.664;23.266;2023-12-20T05:53:56;94600.00;;;-0.08;72.19
58879;BME280;44660;42.664;23.266;2023-12-20T05:56:21;94564.25;;;-0.30;71.72
58879;BME280;44660;42.664;23.266;2023-12-20T05:58:47;94604.53;;;-0.02;71.23
58879;BME280;44660;42.664;23.266;2023-12-20T06:01:14;94577.59;;;-0.25;71.57
58879;BME280;44660;42.664;23.266;2023-12-20T06:03:41;94602.28;;;-0.05;71.77
58879;BME280;44660;42.664;23.266;2023-12-20T06:06:07;94602.28;;;-0.05;71.47
58879;BME280;44660;42.664;23.266;2023-12-20T06:08:33;94517.09;;;-0.60;71.69
58879;BME280;44660;42.664;23.266;2023-12-20T06:10:58;94589.81;;;-0.18;71.98
58879;BME280;44660;42.664;23.266;2023-12-20T06:13:23;94595.78;;;-0.09;71.72
58879;BME280;44660;42.664;23.266;2023-12-20T06:15:49;94541.00;;;-0.48;71.28
58879;BME280;44660;42.664;23.266;2023-12-20T06:18:14;94550.94;;;-0.44;71.61
58879;BME280;44660;42.664;23.266;2023-12-20T06:20:39;94590.59;;;-0.17;72.12
58879;BME280;44660;42.664;23.266;2023-12-20T06:23:05;94598.50;;;-0.25;72.46
58879;BME280;44660;42.664;23.266;2023-12-20T06:25:30;94615.56;;;-0.14;71.96
58879;BME280;44660;42.664;23.266;2023-12-20T06:27:56;94581.53;;;-0.29;72.38
58879;BME280;44660;42.664;23.266;2023-12-20T06:30:21;94592.88;;;-0.14;71.66
58879;BME280;44660;42.664;23.266;2023-12-20T06:32:46;94565.06;;;-0.30;70.98
58879;BME280;44660;42.664;23.266;2023-12-20T06:35:12;94602.28;;;-0.05;71.41
58879;BME280;44660;42.664;23.266;2023-12-20T06:37:38;94581.41;;;-0.13;71.19
58879;BME280;44660;42.664;23.266;2023-12-20T06:40:08;94588.28;;;-0.12;71.19
58879;BME280;44660;42.664;23.266;2023-12-20T06:42:34;94533.59;;;-0.37;71.75
58879;BME280;44660;42.664;23.266;2023-12-20T06:44:59;94526.38;;;-0.35;71.20
58879;BME280;44660;42.664;23.266;2023-12-20T06:47:25;94593.03;;;0.08;71.76
58879;BME280;44660;42.664;23.266;2023-12-20T06:49:51;94575.84;;;-0.10;71.92
58879;BME280;44660;42.664;23.266;2023-12-20T06:52:17;94553.34;;;-0.19;72.15
58879;BME280;44660;42.664;23.266;2023-12-20T06:54:42;94586.50;;;0.04;71.76
58879;BME280;44660;42.664;23.266;2023-12-20T06:57:08;94569.22;;;0.03;71.88
58879;BME280;44660;42.664;23.266;2023-12-20T06:59:38;94560.72;;;0.01;71.42
58879;BME280;44660;42.664;23.266;2023-12-20T07:02:04;94526.19;;;-0.10;71.41
58879;BME280;44660;42.664;23.266;2023-12-20T07:04:30;94572.88;;;0.31;71.31
58879;BME280;44660;42.664;23.266;2023-12-20T07:06:55;94577.38;;;0.38;71.13
58879;BME280;44660;42.664;23.266;2023-12-20T07:09:22;94542.81;;;0.12;70.82
58879;BME280;44660;42.664;23.266;2023-12-20T07:11:48;94569.34;;;0.24;71.12
58879;BME280;44660;42.664;23.266;2023-12-20T07:14:14;94546.88;;;0.15;72.44
58879;BME280;44660;42.664;23.266;2023-12-20T07:16:39;94551.94;;;0.31;77.25
58879;BME280;44660;42.664;23.266;2023-12-20T07:19:06;94556.28;;;0.54;75.90
58879;BME280;44660;42.664;23.266;2023-12-20T07:21:31;94547.25;;;0.42;73.41
58879;BME280;44660;42.664;23.266;2023-12-20T07:23:56;94560.44;;;0.48;72.61
58879;BME280;44660;42.664;23.266;2023-12-20T07:26:22;94543.75;;;0.50;72.49
58879;BME280;44660;42.664;23.266;2023-12-20T07:28:48;94535.16;;;0.56;72.50
58879;BME280;44660;42.664;23.266;2023-12-20T07:31:15;94538.88;;;0.61;72.02
58879;BME280;44660;42.664;23.266;2023-12-20T07:33:41;94519.56;;;0.47;72.18
58879;BME280;44660;42.664;23.266;2023-12-20T07:36:07;94521.34;;;0.62;72.40
58879;BME280;44660;42.664;23.266;2023-12-20T07:38:32;94534.91;;;0.80;72.74
58879;BME280;44660;42.664;23.266;2023-12-20T07:40:58;94532.16;;;0.89;71.86
58879;BME280;44660;42.664;23.266;2023-12-20T07:43:23;94558.06;;;0.98;71.28
58879;BME280;44660;42.664;23.266;2023-12-20T07:45:49;94545.44;;;0.87;71.17
58879;BME280;44660;42.664;23.266;2023-12-20T07:48:14;94522.09;;;0.71;71.04
58879;BME280;44660;42.664;23.266;2023-12-20T07:50:40;94544.53;;;0.95;70.84
58879;BME280;44660;42.664;23.266;2023-12-20T07:53:05;94524.94;;;0.91;70.92
58879;BME280;44660;42.664;23.266;2023-12-20T07:55:31;94529.72;;;1.02;70.62
58879;BME280;44660;42.664;23.266;2023-12-20T07:57:57;94521.34;;;0.92;70.83
58879;BME280;44660;42.664;23.266;2023-12-20T08:00:22;94545.41;;;1.17;70.92
58879;BME280;44660;42.664;23.266;2023-12-20T08:02:47;94545.94;;;1.27;70.75
58879;BME280;44660;42.664;23.266;2023-12-20T08:05:13;94497.91;;;1.05;70.82
58879;BME280;44660;42.664;23.266;2023-12-20T08:07:38;94540.06;;;1.47;70.14
58879;BME280;44660;42.664;23.266;2023-12-20T08:10:04;94479.53;;;1.20;69.90
58879;BME280;44660;42.664;23.266;2023-12-20T08:12:30;94496.41;;;1.33;70.15
58879;BME280;44660;42.664;23.266;2023-12-20T08:14:56;94515.69;;;1.68;70.35
58879;BME280;44660;42.664;23.266;2023-12-20T08:17:22;94530.31;;;2.06;69.99
58879;BME280;44660;42.664;23.266;2023-12-20T08:19:48;94527.91;;;2.33;69.02
58879;BME280;44660;42.664;23.266;2023-12-20T08:22:14;94451.16;;;2.31;68.11
58879;BME280;44660;42.664;23.266;2023-12-20T08:24:39;94520.13;;;2.94;67.14
58879;BME280;44660;42.664;23.266;2023-12-20T08:27:05;94499.13;;;2.94;66.93
58879;BME280;44660;42.664;23.266;2023-12-20T08:29:31;94513.72;;;3.04;66.26
58879;BME280;44660;42.664;23.266;2023-12-20T08:31:56;94509.69;;;3.08;66.10
58879;BME280;44660;42.664;23.266;2023-12-20T08:34:22;94491.91;;;3.10;66.15
58879;BME280;44660;42.664;23.266;2023-12-20T08:36:50;94497.13;;;3.03;65.42
58879;BME280;44660;42.664;23.266;2023-12-20T08:39:15;94498.38;;;3.07;65.44
58879;BME280;44660;42.664;23.266;2023-12-20T08:41:40;94492.72;;;3.17;65.71
58879;BME280;44660;42.664;23.266;2023-12-20T08:44:06;94479.00;;;3.22;66.28
58879;BME280;44660;42.664;23.266;2023-12-20T08:46:31;94472.38;;;3.33;65.51
58879;BME280;44660;42.664;23.266;2023-12-20T08:48:57;94429.03;;;3.02;65.65
58879;BME280;44660;42.664;23.266;2023-12-20T08:51:22;94492.78;;;3.44;65.63
58879;BME280;44660;42.664;23.266;2023-12-20T08:53:50;94458.78;;;3.22;65.60
58879;BME280;44660;42.664;23.266;2023-12-20T08:56:16;94483.63;;;3.13;66.14
58879;BME280;44660;42.664;23.266;2023-12-20T08:58:43;94456.50;;;2.92;66.74
58879;BME280;44660;42.664;23.266;2023-12-20T09:01:08;94464.38;;;2.92;66.71
58879;BME280;44660;42.664;23.266;2023-12-20T09:03:34;94462.88;;;2.70;67.16
58879;BME280;44660;42.664;23.266;2023-12-20T09:05:59;94442.28;;;2.67;67.59
58879;BME280;44660;42.664;23.266;2023-12-20T09:08:25;94450.75;;;2.75;67.53
58879;BME280;44660;42.664;23.266;2023-12-20T09:10:51;94431.16;;;2.71;68.09
58879;BME280;44660;42.664;23.266;2023-12-20T09:13:16;94420.66;;;2.78;67.73
58879;BME280;44660;42.664;23.266;2023-12-20T09:15:42;94408.94;;;2.74;67.58
58879;BME280;44660;42.664;23.266;2023-12-20T09:18:07;94421.50;;;2.85;67.79
58879;BME280;44660;42.664;23.266;2023-12-20T09:20:33;94379.84;;;2.69;68.05
58879;BME280;44660;42.664;23.266;2023-12-20T09:22:59;94409.78;;;2.88;67.78
58879;BME280;44660;42.664;23.266;2023-12-20T09:25:24;94386.94;;;2.75;67.66
58879;BME280;44660;42.664;23.266;2023-12-20T09:27:51;94386.78;;;2.90;68.28
58879;BME280;44660;42.664;23.266;2023-12-20T09:30:18;94376.28;;;2.83;68.39
58879;BME280;44660;42.664;23.266;2023-12-20T09:32:43;94353.22;;;2.85;67.77
58879;BME280;44660;42.664;23.266;2023-12-20T09:35:08;94366.16;;;2.87;67.78
58879;BME280;44660;42.664;23.266;2023-12-20T09:37:34;94373.03;;;2.88;67.94
58879;BME280;44660;42.664;23.266;2023-12-20T09:39:59;94364.16;;;2.96;67.66
58879;BME280;44660;42.664;23.266;2023-12-20T09:45:00;94341.50;;;2.81;68.35
58879;BME280;44660;42.664;23.266;2023-12-20T09:47:28;94312.19;;;2.64;67.97
58879;BME280;44660;42.664;23.266;2023-12-20T09:49:54;94362.13;;;2.98;68.14
58879;BME280;44660;42.664;23.266;2023-12-20T09:52:21;94343.97;;;2.96;68.32
58879;BME280;44660;42.664;23.266;2023-12-20T09:54:49;94339.13;;;3.00;68.44
58879;BME280;44660;42.664;23.266;2023-12-20T09:57:16;94352.66;;;3.23;68.25
58879;BME280;44660;42.664;23.266;2023-12-20T09:59:41;94350.03;;;3.23;67.95
58879;BME280;44660;42.664;23.266;2023-12-20T10:02:12;94334.88;;;3.25;67.85
58879;BME280;44660;42.664;23.266;2023-12-20T10:04:41;94348.63;;;3.48;67.86
58879;BME280;44660;42.664;23.266;2023-12-20T10:07:11;94322.75;;;3.38;67.29
58879;BME280;44660;42.664;23.266;2023-12-20T10:09:36;94344.97;;;3.55;67.02
58879;BME280;44660;42.664;23.266;2023-12-20T10:12:03;94338.31;;;3.59;67.09
58879;BME280;44660;42.664;23.266;2023-12-20T10:14:30;94324.94;;;3.68;67.04
58879;BME280;44660;42.664;23.266;2023-12-20T10:17:02;94328.13;;;3.83;66.46
58879;BME280;44660;42.664;23.266;2023-12-20T10:19:28;94310.28;;;4.05;66.38
58879;BME280;44660;42.664;23.266;2023-12-20T10:21:53;94300.66;;;4.31;66.08
58879;BME280;44660;42.664;23.266;2023-12-20T10:24:18;94297.31;;;4.56;65.21
58879;BME280;44660;42.664;23.266;2023-12-20T10:26:44;94296.25;;;4.64;64.79
58879;BME280;44660;42.664;23.266;2023-12-20T10:29:09;94298.50;;;4.60;64.37
58879;BME280;44660;42.664;23.266;2023-12-20T10:31:35;94239.56;;;4.54;64.32
58879;BME280;44660;42.664;23.266;2023-12-20T10:34:02;94269.59;;;5.11;63.80
58879;BME280;44660;42.664;23.266;2023-12-20T10:36:30;94270.13;;;5.45;62.90
58879;BME280;44660;42.664;23.266;2023-12-20T10:38:56;94258.22;;;5.79;61.78
58879;BME280;44660;42.664;23.266;2023-12-20T10:41:30;94257.19;;;6.17;59.85
58879;BME280;44660;42.664;23.266;2023-12-20T10:44:00;94258.72;;;6.25;58.92
58879;BME280;44660;42.664;23.266;2023-12-20T10:46:27;94261.41;;;6.37;59.16
58879;BME280;44660;42.664;23.266;2023-12-20T10:48:54;94255.09;;;6.68;58.66
58879;BME280;44660;42.664;23.266;2023-12-20T10:51:21;94236.06;;;6.78;57.68
58879;BME280;44660;42.664;23.266;2023-12-20T10:53:47;94252.28;;;6.82;57.46
58879;BME280;44660;42.664;23.266;2023-12-20T10:56:16;94250.38;;;7.01;56.82
58879;BME280;44660;42.664;23.266;2023-12-20T10:58:43;94233.59;;;7.31;55.91
58879;BME280;44660;42.664;23.266;2023-12-20T11:01:12;94207.16;;;7.43;55.38
58879;BME280;44660;42.664;23.266;2023-12-20T11:03:38;94224.53;;;7.50;55.07
58879;BME280;44660;42.664;23.266;2023-12-20T11:06:27;94205.56;;;7.42;55.22
58879;BME280;44660;42.664;23.266;2023-12-20T11:09:07;94217.16;;;7.52;54.69
58879;BME280;44660;42.664;23.266;2023-12-20T11:12:01;94221.50;;;7.71;54.66
58879;BME280;44660;42.664;23.266;2023-12-20T11:14:42;94187.75;;;7.90;54.00
58879;BME280;44660;42.664;23.266;2023-12-20T11:17:11;94185.00;;;8.25;53.18
58879;BME280;44660;42.664;23.266;2023-12-20T11:22:24;94167.94;;;8.33;52.46
58879;BME280;44660;42.664;23.266;2023-12-20T11:24:51;94164.84;;;8.53;52.14
58879;BME280;44660;42.664;23.266;2023-12-20T11:27:18;94179.00;;;8.59;52.01
58879;BME280;44660;42.664;23.266;2023-12-20T11:29:51;94162.56;;;8.45;52.61
58879;BME280;44660;42.664;23.266;2023-12-20T11:34:58;94139.41;;;8.40;52.46
58879;BME280;44660;42.664;23.266;2023-12-20T11:37:31;94147.03;;;8.48;52.95
58879;BME280;44660;42.664;23.266;2023-12-20T11:40:05;94144.91;;;8.50;52.76
58879;BME280;44660;42.664;23.266;2023-12-20T11:42:39;94142.84;;;8.53;53.00
58879;BME280;44660;42.664;23.266;2023-12-20T11:45:08;94137.53;;;8.53;52.73
58879;BME280;44660;42.664;23.266;2023-12-20T11:47:34;94142.16;;;8.45;52.69
58879;BME280;44660;42.664;23.266;2023-12-20T11:50:00;94072.19;;;8.12;52.97
58879;BME280;44660;42.664;23.266;2023-12-20T11:52:29;94118.69;;;8.66;52.26
58879;BME280;44660;42.664;23.266;2023-12-20T11:54:54;94113.63;;;8.81;51.44
58879;BME280;44660;42.664;23.266;2023-12-20T11:57:20;94113.31;;;8.78;51.57
58879;BME280;44660;42.664;23.266;2023-12-20T11:59:45;94098.66;;;8.92;51.07
58879;BME280;44660;42.664;23.266;2023-12-20T12:02:14;94094.19;;;8.76;51.24
58879;BME280;44660;42.664;23.266;2023-12-20T12:04:41;94092.75;;;8.85;51.47
58879;BME280;44660;42.664;23.266;2023-12-20T12:07:07;94076.84;;;8.68;51.52
58879;BME280;44660;42.664;23.266;2023-12-20T12:09:33;94075.06;;;8.74;51.69
58879;BME280;44660;42.664;23.266;2023-12-20T12:11:59;94074.09;;;8.63;51.33
58879;BME280;44660;42.664;23.266;2023-12-20T12:14:25;94066.91;;;8.58;51.56
58879;BME280;44660;42.664;23.266;2023-12-20T12:16:50;94075.22;;;8.67;51.70
58879;BME280;44660;42.664;23.266;2023-12-20T12:19:25;94045.06;;;8.51;51.67
58879;BME280;44660;42.664;23.266;2023-12-20T12:21:52;94069.13;;;8.66;51.80
58879;BME280;44660;42.664;23.266;2023-12-20T12:24:28;94042.88;;;8.65;51.66
58879;BME280;44660;42.664;23.266;2023-12-20T12:26:57;94057.38;;;8.79;52.25
58879;BME280;44660;42.664;23.266;2023-12-20T12:29:25;94039.31;;;8.76;51.72
58879;BME280;44660;42.664;23.266;2023-12-20T12:31:51;94055.91;;;8.89;51.79
58879;BME280;44660;42.664;23.266;2023-12-20T12:34:19;94050.47;;;8.95;51.40
58879;BME280;44660;42.664;23.266;2023-12-20T12:36:45;94052.66;;;8.81;51.85
58879;BME280;44660;42.664;23.266;2023-12-20T12:39:17;94040.22;;;8.65;52.24
58879;BME280;44660;42.664;23.266;2023-12-20T12:41:43;94055.97;;;8.55;52.35
58879;BME280;44660;42.664;23.266;2023-12-20T12:44:08;94040.53;;;8.34;53.02
58879;BME280;44660;42.664;23.266;2023-12-20T12:46:34;93999.66;;;8.13;53.12
58879;BME280;44660;42.664;23.266;2023-12-20T12:48:59;94058.81;;;8.36;53.25
58879;BME280;44660;42.664;23.266;2023-12-20T12:51:25;94048.06;;;8.26;53.39
58879;BME280;44660;42.664;23.266;2023-12-20T12:53:50;94022.38;;;7.92;53.69
58879;BME280;44660;42.664;23.266;2023-12-20T12:56:16;94028.28;;;7.82;54.34
58879;BME280;44660;42.664;23.266;2023-12-20T12:58:42;94055.19;;;7.79;54.32
58879;BME280;44660;42.664;23.266;2023-12-20T13:01:07;94041.69;;;7.64;54.90
58879;BME280;44660;42.664;23.266;2023-12-20T13:03:33;94039.34;;;7.50;55.44